Terlton, Oklahoma
Current Conditions -  °F | °C
As of 11:35 AM on Monday 22 Dec 2014 (Local Time) from KOWP Reporting Station
Haze Haze  
Wind Chill: 52°   Ceiling: 700
Heat Index: 52°   Visibility: 5mi
Dew Point: 50°   Wind: 3mph
Humidity: 94%   Direction: 230°SW
Pressure: 29.58"   Gusts: NA
Location:  36.19°N, 96.49°W
Report Text: KOWP 221735Z AUTO 23003KT 5SM BR BKN007 OVC012 11/10 A2958 RMK AO2 T01100100
Loading
Personal Weather Stations






























Interactive Weather Map New forecast layout! Learn more

10-Day Weather Forecast

Advertisements
Track Severe Weather on mobile